createdAt,value
2022-08-21T00:02:05.435Z,98411.08
2022-08-21T00:04:33.234Z,98417.66
2022-08-21T00:07:01.134Z,98412.36
2022-08-21T00:09:29.348Z,98415.83
2022-08-21T00:11:57.339Z,98412.31
2022-08-21T00:14:26.425Z,98408.99
2022-08-21T00:17:00.145Z,98407.40
2022-08-21T00:19:29.573Z,98400.27
2022-08-21T00:21:58.509Z,98398.83
2022-08-21T00:24:28.204Z,98398.47
2022-08-21T00:26:56.987Z,98396.69
2022-08-21T00:29:25.429Z,98398.08
2022-08-21T00:31:55.177Z,98394.48
2022-08-21T00:34:22.982Z,98389.28
2022-08-21T00:36:51.532Z,98385.70
2022-08-21T00:39:19.972Z,98383.80
2022-08-21T00:41:50.501Z,98384.11
2022-08-21T00:44:18.703Z,98376.73
2022-08-21T00:46:47.745Z,98373.46
2022-08-21T00:49:16.032Z,98371.40
2022-08-21T00:51:53.418Z,98369.89
2022-08-21T00:54:25.823Z,98364.78
2022-08-21T00:56:57.448Z,98356.92
2022-08-21T00:59:31.224Z,98354.08
2022-08-21T01:01:59.749Z,98354.46
2022-08-21T01:04:28.276Z,98357.08
2022-08-21T01:06:57.049Z,98358.59
2022-08-21T01:09:25.572Z,98359.20
2022-08-21T01:11:53.374Z,98360.66
2022-08-21T01:14:22.662Z,98363.70
2022-08-21T01:16:54.346Z,98361.39
2022-08-21T01:19:25.136Z,98363.65
2022-08-21T01:21:54.859Z,98360.71
2022-08-21T01:24:23.929Z,98362.42
2022-08-21T01:26:52.527Z,98360.83
2022-08-21T01:29:44.061Z,98361.43
2022-08-21T01:32:16.234Z,98365.71
2022-08-21T01:34:48.096Z,98364.06
2022-08-21T01:37:18.015Z,98363.83
2022-08-21T01:39:46.939Z,98362.11
2022-08-21T01:42:15.493Z,98363.62
2022-08-21T01:44:44.366Z,98364.77
2022-08-21T01:47:18.236Z,98356.73
2022-08-21T01:49:46.852Z,98356.58
2022-08-21T01:52:15.097Z,98353.45
2022-08-21T01:54:43.982Z,98354.88
2022-08-21T01:57:15.171Z,98353.51
2022-08-21T01:59:43.514Z,98352.32
2022-08-21T02:02:11.717Z,98349.23
2022-08-21T02:04:40.947Z,98351.94
2022-08-21T02:07:10.357Z,98354.48
2022-08-21T02:09:40.269Z,98356.40
2022-08-21T02:12:09.632Z,98358.46
2022-08-21T02:14:37.601Z,98361.63
2022-08-21T02:17:09.831Z,98354.41
2022-08-21T02:19:40.520Z,98355.88
2022-08-21T02:22:12.118Z,98354.60
2022-08-21T02:24:53.827Z,98353.02
2022-08-21T02:27:27.462Z,98350.50
2022-08-21T02:29:58.736Z,98349.57
2022-08-21T02:32:27.242Z,98348.25
2022-08-21T02:34:56.603Z,98349.16
2022-08-21T02:37:25.670Z,98344.60
2022-08-21T02:39:53.708Z,98343.75
2022-08-21T02:42:22.959Z,98339.91
2022-08-21T02:44:52.033Z,98336.01
2022-08-21T02:47:19.818Z,98336.00
2022-08-21T02:49:48.382Z,98332.93
2022-08-21T02:52:17.373Z,98339.98
2022-08-21T02:54:45.102Z,98344.09
2022-08-21T02:57:13.754Z,98342.63
2022-08-21T02:59:42.307Z,98344.48
2022-08-21T03:02:10.721Z,98348.45
2022-08-21T03:04:41.365Z,98352.34
2022-08-21T03:07:11.558Z,98349.42
2022-08-21T03:09:45.543Z,98350.15
2022-08-21T03:12:27.899Z,98350.54
2022-08-21T03:14:59.378Z,98348.73
2022-08-21T03:17:30.003Z,98344.71
2022-08-21T03:19:59.657Z,98344.63
2022-08-21T03:22:30.710Z,98338.77
2022-08-21T03:25:01.547Z,98334.88
2022-08-21T03:27:35.807Z,98332.80
2022-08-21T03:30:09.125Z,98329.27
2022-08-21T03:32:37.691Z,98327.92
2022-08-21T03:35:06.677Z,98327.55
2022-08-21T03:37:35.497Z,98327.20
2022-08-21T03:40:08.807Z,98327.48
2022-08-21T03:42:37.126Z,98330.63
2022-08-21T03:45:07.020Z,98329.89
2022-08-21T03:47:34.823Z,98328.86
2022-08-21T03:50:05.643Z,98328.59
2022-08-21T03:52:33.420Z,98326.84
2022-08-21T03:55:01.146Z,98325.16
2022-08-21T03:57:28.965Z,98325.21
2022-08-21T03:59:57.192Z,98323.44
2022-08-21T04:02:25.107Z,98327.38
2022-08-21T04:04:52.871Z,98326.90
2022-08-21T04:07:20.705Z,98328.21
2022-08-21T04:09:48.527Z,98331.69
2022-08-21T04:12:16.365Z,98334.03
2022-08-21T04:14:44.151Z,98331.70
2022-08-21T04:17:11.952Z,98338.56
2022-08-21T04:19:39.773Z,98341.63
2022-08-21T04:22:07.486Z,98346.91
2022-08-21T04:24:35.755Z,98352.02
2022-08-21T04:27:03.699Z,98349.22
2022-08-21T04:29:31.998Z,98349.70
2022-08-21T04:32:02.807Z,98346.48
2022-08-21T04:34:30.557Z,98346.23
2022-08-21T04:36:58.326Z,98349.33
2022-08-21T04:39:29.723Z,98351.60
2022-08-21T04:41:58.156Z,98348.92
2022-08-21T04:44:25.967Z,98351.23
2022-08-21T04:46:54.113Z,98350.81
2022-08-21T04:49:21.859Z,98354.30
2022-08-21T04:51:50.729Z,98353.26
2022-08-21T04:54:23.309Z,98359.00
2022-08-21T04:56:55.743Z,98356.67
2022-08-21T04:59:33.052Z,98356.65
2022-08-21T05:02:03.002Z,98356.95
2022-08-21T05:04:34.438Z,98360.04
2022-08-21T05:07:07.599Z,98369.98
2022-08-21T05:09:38.015Z,98374.99
2022-08-21T05:12:06.788Z,98373.92
2022-08-21T05:14:34.655Z,98368.59
2022-08-21T05:17:02.431Z,98370.39
2022-08-21T05:19:30.353Z,98367.61
2022-08-21T05:21:59.078Z,98372.56
2022-08-21T05:24:27.485Z,98370.48
2022-08-21T05:26:55.349Z,98366.23
2022-08-21T05:29:23.266Z,98369.04
2022-08-21T05:31:52.802Z,98369.92
2022-08-21T05:34:24.491Z,98366.96
2022-08-21T05:36:52.719Z,98365.92
2022-08-21T05:39:20.496Z,98367.29
2022-08-21T05:41:49.190Z,98362.17
2022-08-21T05:44:17.037Z,98359.25
2022-08-21T05:46:45.322Z,98362.24
2022-08-21T05:49:13.663Z,98362.08
2022-08-21T05:51:43.420Z,98363.36
2022-08-21T05:54:12.540Z,98363.77
2022-08-21T05:56:40.300Z,98368.34
2022-08-21T05:59:09.193Z,98363.29
2022-08-21T06:01:37.125Z,98362.05
2022-08-21T06:04:06.299Z,98360.67
2022-08-21T06:06:35.411Z,98358.65
2022-08-21T06:09:05.422Z,98356.96
2022-08-21T06:11:33.516Z,98358.10
2022-08-21T06:14:01.545Z,98358.14
2022-08-21T06:16:30.838Z,98359.61
2022-08-21T06:19:02.634Z,98360.55
2022-08-21T06:21:31.500Z,98358.56
2022-08-21T06:23:59.318Z,98354.62
2022-08-21T06:26:29.426Z,98356.21
2022-08-21T06:28:59.931Z,98353.17
2022-08-21T06:31:29.928Z,98351.73
2022-08-21T06:33:58.878Z,98353.36
2022-08-21T06:36:27.039Z,98352.54
2022-08-21T06:38:57.835Z,98351.41
2022-08-21T06:41:27.229Z,98355.33
2022-08-21T06:43:58.523Z,98353.15
2022-08-21T06:46:30.527Z,98356.73
2022-08-21T06:49:00.109Z,98357.02
2022-08-21T06:51:28.675Z,98356.92
2022-08-21T06:53:59.444Z,98356.02
2022-08-21T06:56:27.999Z,98353.11
2022-08-21T06:58:57.994Z,98350.98
2022-08-21T07:01:28.802Z,98351.83
2022-08-21T07:03:56.624Z,98347.92
2022-08-21T07:06:26.309Z,98343.12
2022-08-21T07:08:54.161Z,98342.35
2022-08-21T07:11:27.402Z,98344.11
2022-08-21T07:13:57.713Z,98342.58
2022-08-21T07:16:25.660Z,98341.98
2022-08-21T07:18:54.107Z,98337.01
2022-08-21T07:21:25.818Z,98332.25
2022-08-21T07:23:55.262Z,98332.33
2022-08-21T07:26:25.407Z,98330.19
2022-08-21T07:28:55.486Z,98331.98
2022-08-21T07:31:26.210Z,98323.59
2022-08-21T07:33:55.466Z,98326.45
2022-08-21T07:36:24.831Z,98321.14
2022-08-21T07:38:53.170Z,98320.34
2022-08-21T07:41:29.592Z,98317.30
2022-08-21T07:44:01.177Z,98317.97
2022-08-21T07:46:29.114Z,98324.73
2022-08-21T07:48:57.523Z,98319.92
2022-08-21T07:51:30.380Z,98314.39
2022-08-21T07:54:00.721Z,98312.52
2022-08-21T07:56:32.511Z,98313.30
2022-08-21T07:59:00.553Z,98318.08
2022-08-21T08:01:28.875Z,98316.13
2022-08-21T08:03:57.415Z,98313.64
2022-08-21T08:06:26.813Z,98314.38
2022-08-21T08:08:54.743Z,98312.36
2022-08-21T08:11:23.736Z,98307.41
2022-08-21T08:13:53.539Z,98309.55
2022-08-21T08:16:21.303Z,98305.34
2022-08-21T08:18:51.560Z,98301.18
2022-08-21T08:21:22.322Z,98299.83
2022-08-21T08:23:51.051Z,98300.70
2022-08-21T08:26:18.883Z,98302.05
2022-08-21T08:28:49.085Z,98297.20
2022-08-21T08:31:16.884Z,98292.07
2022-08-21T08:33:45.084Z,98289.34
2022-08-21T08:36:16.041Z,98287.23
2022-08-21T08:38:44.534Z,98289.20
2022-08-21T08:41:15.283Z,98285.98
2022-08-21T08:43:53.360Z,98286.28
2022-08-21T08:46:47.740Z,98287.70
2022-08-21T08:49:36.407Z,98286.47
2022-08-21T08:52:29.762Z,98281.88
2022-08-21T08:55:25.360Z,98285.26
2022-08-21T08:57:58.466Z,98283.47
2022-08-21T09:00:26.535Z,98285.05
2022-08-21T09:02:59.780Z,98282.15
2022-08-21T09:05:47.303Z,98282.60
2022-08-21T09:08:39.236Z,98282.20
2022-08-21T09:11:25.636Z,98282.47
2022-08-21T09:14:15.383Z,98277.22
2022-08-21T09:16:52.196Z,98279.51
2022-08-21T09:19:36.624Z,98280.92
2022-08-21T09:22:16.841Z,98275.99
2022-08-21T09:25:13.011Z,98283.75
2022-08-21T09:27:40.860Z,98278.59
2022-08-21T09:30:11.600Z,98275.02
2022-08-21T09:32:40.533Z,98276.92
2022-08-21T09:35:15.035Z,98274.86
2022-08-21T09:38:02.018Z,98273.35
2022-08-21T09:40:41.813Z,98266.91
2022-08-21T09:43:12.684Z,98266.93
2022-08-21T09:45:46.721Z,98265.17
2022-08-21T09:48:16.261Z,98260.19
2022-08-21T09:50:45.091Z,98256.37
2022-08-21T09:53:29.090Z,98255.14
2022-08-21T09:56:24.390Z,98250.02
2022-08-21T09:58:53.444Z,98252.92
2022-08-21T10:01:24.282Z,98245.45
2022-08-21T10:04:09.166Z,98243.85
2022-08-21T10:06:37.505Z,98246.20
2022-08-21T10:09:05.249Z,98242.74
2022-08-21T10:11:35.537Z,98244.02
2022-08-21T10:14:16.002Z,98241.36
2022-08-21T10:17:15.615Z,98246.64
2022-08-21T10:20:12.663Z,98245.55
2022-08-21T10:23:06.837Z,98243.71
2022-08-21T10:25:56.420Z,98241.70
2022-08-21T10:28:45.354Z,98243.88
2022-08-21T10:31:41.001Z,98241.89
2022-08-21T10:34:17.981Z,98242.44
2022-08-21T10:36:57.315Z,98238.98
2022-08-21T10:39:36.541Z,98238.99
2022-08-21T10:42:28.663Z,98241.07
2022-08-21T10:45:20.093Z,98239.83
2022-08-21T10:47:58.146Z,98235.28
2022-08-21T10:50:43.037Z,98237.00
2022-08-21T10:53:32.569Z,98236.95
2022-08-21T10:56:24.984Z,98239.08
2022-08-21T10:59:20.629Z,98239.19
2022-08-21T11:02:01.945Z,98239.38
2022-08-21T11:04:49.375Z,98235.01
2022-08-21T11:07:27.074Z,98232.41
2022-08-21T11:10:06.942Z,98230.48
2022-08-21T11:12:44.434Z,98228.09
2022-08-21T11:15:48.973Z,98223.45
2022-08-21T11:18:33.662Z,98221.17
2022-08-21T11:21:17.563Z,98215.08
2022-08-21T11:23:58.674Z,98216.46
2022-08-21T11:26:36.449Z,98212.67
2022-08-21T11:29:18.041Z,98212.95
2022-08-21T11:32:24.097Z,98213.67
2022-08-21T11:35:23.813Z,98213.23
2022-08-21T11:37:57.173Z,98207.23
2022-08-21T11:40:57.871Z,98208.23
2022-08-21T11:43:38.917Z,98212.13
2022-08-21T11:46:25.419Z,98210.60
2022-08-21T11:49:06.904Z,98210.77
2022-08-21T11:51:42.451Z,98214.84
2022-08-21T11:54:35.406Z,98216.11
2022-08-21T11:57:09.509Z,98208.62
2022-08-21T11:59:46.507Z,98211.04
2022-08-21T12:02:19.551Z,98209.70
2022-08-21T12:04:55.438Z,98204.87
2022-08-21T12:07:34.570Z,98201.70
2022-08-21T12:10:09.228Z,98204.11
2022-08-21T12:12:40.339Z,98199.95
2022-08-21T12:15:17.362Z,98198.61
2022-08-21T12:18:08.736Z,98193.05
2022-08-21T12:20:50.001Z,98185.25
2022-08-21T12:23:27.927Z,98187.61
2022-08-21T12:26:15.413Z,98186.45
2022-08-21T12:28:43.195Z,98180.89
2022-08-21T12:31:26.774Z,98182.82
2022-08-21T12:34:03.831Z,98181.48
2022-08-21T12:36:56.870Z,98175.30
2022-08-21T12:39:28.742Z,98172.89
2022-08-21T12:42:24.122Z,98175.60
2022-08-21T12:45:02.070Z,98168.24
2022-08-21T12:47:46.075Z,98168.85
2022-08-21T12:50:22.127Z,98170.39
2022-08-21T12:53:00.501Z,98166.15
2022-08-21T12:55:33.717Z,98169.36
2022-08-21T12:58:04.189Z,98173.77
2022-08-21T13:00:32.667Z,98170.23
2022-08-21T13:03:02.136Z,98172.40
2022-08-21T13:05:37.628Z,98170.98
2022-08-21T13:08:09.174Z,98178.11
2022-08-21T13:10:38.909Z,98176.51
2022-08-21T13:13:15.478Z,98177.11
2022-08-21T13:16:00.215Z,98174.94
2022-08-21T13:18:32.890Z,98171.98
2022-08-21T13:21:12.637Z,98169.00
2022-08-21T13:23:42.029Z,98167.73
2022-08-21T13:26:20.386Z,98170.44
2022-08-21T13:28:50.596Z,98169.83
2022-08-21T13:31:26.507Z,98168.52
2022-08-21T13:33:56.294Z,98173.16
2022-08-21T13:36:38.327Z,98173.54
2022-08-21T13:39:10.760Z,98179.25
2022-08-21T13:41:42.804Z,98185.86
2022-08-21T13:44:21.159Z,98187.30
2022-08-21T13:46:51.725Z,98193.71
2022-08-21T13:49:29.173Z,98198.23
2022-08-21T13:51:58.003Z,98200.32
2022-08-21T13:54:31.468Z,98199.55
2022-08-21T13:56:59.531Z,98199.14
2022-08-21T13:59:37.994Z,98199.20
2022-08-21T14:02:15.334Z,98201.34
2022-08-21T14:04:57.772Z,98206.54
2022-08-21T14:07:37.408Z,98204.89
2022-08-21T14:10:17.406Z,98210.80
2022-08-21T14:12:56.984Z,98211.98
2022-08-21T14:15:35.225Z,98218.42
2022-08-21T14:18:18.542Z,98216.16
2022-08-21T14:20:47.611Z,98221.15
2022-08-21T14:23:29.564Z,98222.17
2022-08-21T14:26:06.191Z,98223.02
2022-08-21T14:28:42.059Z,98229.59
2022-08-21T14:31:21.954Z,98229.33
2022-08-21T14:33:51.224Z,98231.14
2022-08-21T14:36:18.945Z,98234.76
2022-08-21T14:38:49.191Z,98233.48
2022-08-21T14:41:22.865Z,98240.35
2022-08-21T14:44:05.928Z,98247.02
2022-08-21T14:46:47.302Z,98247.05
2022-08-21T14:49:29.815Z,98244.08
2022-08-21T14:52:00.361Z,98245.36
2022-08-21T14:54:32.743Z,98244.91
2022-08-21T14:57:06.327Z,98245.56
2022-08-21T14:59:36.525Z,98240.33
2022-08-21T15:02:06.126Z,98235.59
2022-08-21T15:04:35.699Z,98240.42
2022-08-21T15:07:07.738Z,98236.79
2022-08-21T15:09:36.814Z,98237.84
2022-08-21T15:12:07.010Z,98233.30
2022-08-21T15:14:39.463Z,98231.82
2022-08-21T15:17:11.840Z,98230.59
2022-08-21T15:19:42.000Z,98230.27
2022-08-21T15:22:18.762Z,98231.50
2022-08-21T15:24:50.522Z,98230.70
2022-08-21T15:27:20.953Z,98235.02
2022-08-21T15:29:51.373Z,98232.59
2022-08-21T15:32:24.902Z,98232.92
2022-08-21T15:34:55.126Z,98234.90
2022-08-21T15:37:26.179Z,98232.59
2022-08-21T15:39:55.601Z,98229.96
2022-08-21T15:42:27.895Z,98230.69
2022-08-21T15:44:58.634Z,98228.77
2022-08-21T15:47:32.622Z,98225.84
2022-08-21T15:50:03.386Z,98223.27
2022-08-21T15:52:32.894Z,98222.55
2022-08-21T15:55:01.876Z,98226.05
2022-08-21T15:57:32.395Z,98225.59
2022-08-21T16:00:14.197Z,98233.34
2022-08-21T16:02:49.457Z,98232.35
2022-08-21T16:05:19.605Z,98231.50
2022-08-21T16:07:50.525Z,98235.53
2022-08-21T16:10:24.072Z,98237.52
2022-08-21T16:13:04.540Z,98239.79
2022-08-21T16:15:32.577Z,98238.63
2022-08-21T16:18:03.313Z,98241.02
2022-08-21T16:20:31.345Z,98239.59
2022-08-21T16:23:01.822Z,98240.80
2022-08-21T16:25:38.308Z,98238.09
2022-08-21T16:28:14.703Z,98234.29
2022-08-21T16:30:48.179Z,98233.44
2022-08-21T16:33:26.746Z,98233.55
2022-08-21T16:35:54.995Z,98232.86
2022-08-21T16:38:24.182Z,98238.17
2022-08-21T16:40:52.666Z,98238.59
2022-08-21T16:43:31.048Z,98241.11
2022-08-21T16:46:02.953Z,98242.30
2022-08-21T16:48:32.348Z,98242.92
2022-08-21T16:51:01.520Z,98244.77
2022-08-21T16:53:30.642Z,98248.10
2022-08-21T16:55:59.950Z,98251.81
2022-08-21T16:58:35.338Z,98252.59
2022-08-21T17:01:16.396Z,98255.72
2022-08-21T17:03:51.375Z,98261.68
2022-08-21T17:06:23.127Z,98264.11
2022-08-21T17:09:02.689Z,98265.27
2022-08-21T17:11:42.214Z,98268.81
2022-08-21T17:14:21.105Z,98271.37
2022-08-21T17:16:54.301Z,98271.67
2022-08-21T17:19:25.483Z,98277.10
2022-08-21T17:21:53.599Z,98275.33
2022-08-21T17:24:22.733Z,98274.20
2022-08-21T17:26:56.743Z,98275.20
2022-08-21T17:29:35.250Z,98279.27
2022-08-21T17:32:14.142Z,98279.96
2022-08-21T17:34:45.182Z,98278.83
2022-08-21T17:37:16.044Z,98282.57
2022-08-21T17:39:43.887Z,98282.55
2022-08-21T17:42:14.520Z,98284.60
2022-08-21T17:44:46.023Z,98291.14
2022-08-21T17:47:15.301Z,98293.51
2022-08-21T17:49:43.267Z,98295.90
2022-08-21T17:52:11.087Z,98298.19
2022-08-21T17:54:42.589Z,98297.95
2022-08-21T17:57:19.527Z,98300.85
2022-08-21T17:59:54.125Z,98303.92
2022-08-21T18:02:30.645Z,98303.60
2022-08-21T18:04:58.371Z,98309.73
2022-08-21T18:07:32.750Z,98312.23
2022-08-21T18:10:07.556Z,98309.70
2022-08-21T18:12:38.468Z,98311.83
2022-08-21T18:15:08.967Z,98310.50
2022-08-21T18:17:38.428Z,98310.23
2022-08-21T18:20:09.582Z,98311.79
2022-08-21T18:22:38.164Z,98309.81
2022-08-21T18:25:06.387Z,98313.74
2022-08-21T18:27:34.301Z,98312.20
2022-08-21T18:30:02.149Z,98311.66
2022-08-21T18:32:31.637Z,98311.77
2022-08-21T18:35:03.992Z,98317.13
2022-08-21T18:37:33.811Z,98317.90
2022-08-21T18:40:03.006Z,98314.80
2022-08-21T18:42:36.335Z,98314.98
2022-08-21T18:45:08.892Z,98316.90
2022-08-21T18:47:41.534Z,98322.00
2022-08-21T18:50:12.750Z,98319.11
2022-08-21T18:55:30.201Z,98318.47
2022-08-21T18:57:58.968Z,98317.91
2022-08-21T19:00:30.657Z,98318.80
2022-08-21T19:03:01.384Z,98322.06
2022-08-21T19:05:29.585Z,98321.27
2022-08-21T19:07:59.725Z,98323.27
2022-08-21T19:10:31.934Z,98321.07
2022-08-21T19:13:02.261Z,98319.77
2022-08-21T19:15:34.537Z,98316.86
2022-08-21T19:18:05.422Z,98318.54
2022-08-21T19:20:38.877Z,98317.80
2022-08-21T19:23:08.479Z,98318.14
2022-08-21T19:25:41.921Z,98310.80
2022-08-21T19:28:15.946Z,98312.00
2022-08-21T19:30:53.283Z,98314.39
2022-08-21T19:33:30.270Z,98314.69
2022-08-21T19:36:00.377Z,98311.00
2022-08-21T19:38:29.208Z,98308.83
2022-08-21T19:40:59.154Z,98308.73
2022-08-21T19:43:29.659Z,98310.14
2022-08-21T19:46:00.858Z,98311.67
2022-08-21T19:48:28.797Z,98307.52
2022-08-21T19:50:56.591Z,98310.06
2022-08-21T19:53:24.447Z,98305.48
2022-08-21T19:55:53.741Z,98309.52
2022-08-21T19:58:41.840Z,98311.09
2022-08-21T20:01:16.856Z,98308.68
2022-08-21T20:03:54.147Z,98306.70
2022-08-21T20:06:26.689Z,98309.44
2022-08-21T20:08:57.040Z,98310.95
2022-08-21T20:11:37.908Z,98309.80
2022-08-21T20:14:08.827Z,98307.20
2022-08-21T20:16:39.258Z,98308.41
2022-08-21T20:19:11.415Z,98307.23
2022-08-21T20:21:44.618Z,98304.91
2022-08-21T20:27:07.682Z,98303.45
2022-08-21T20:29:39.440Z,98307.77
2022-08-21T20:32:12.289Z,98311.07
2022-08-21T20:34:41.900Z,98305.98
2022-08-21T20:40:11.159Z,98300.88
2022-08-21T20:42:48.626Z,98299.94
2022-08-21T20:45:21.854Z,98298.70
2022-08-21T20:48:03.136Z,98299.83
2022-08-21T20:50:37.236Z,98304.63
2022-08-21T20:53:26.182Z,98303.04
2022-08-21T20:56:22.955Z,98308.26
2022-08-21T20:59:16.904Z,98306.16
2022-08-21T21:01:49.827Z,98307.34
2022-08-21T21:04:30.483Z,98307.41
2022-08-21T21:07:01.801Z,98303.92
2022-08-21T21:09:45.029Z,98303.74
2022-08-21T21:12:35.729Z,98302.77
2022-08-21T21:15:27.974Z,98300.48
2022-08-21T21:18:25.119Z,98306.71
2022-08-21T21:21:13.226Z,98304.64
2022-08-21T21:23:54.439Z,98309.52
2022-08-21T21:26:29.191Z,98309.83
2022-08-21T21:29:09.933Z,98315.00
2022-08-21T21:31:43.743Z,98317.98
2022-08-21T21:37:14.240Z,98318.63
2022-08-21T21:40:02.541Z,98321.86
2022-08-21T21:42:37.903Z,98318.54
2022-08-21T21:45:23.479Z,98313.67
2022-08-21T21:48:30.907Z,98313.66
2022-08-21T21:51:16.840Z,98313.89
2022-08-21T21:54:14.213Z,98312.48
2022-08-21T21:57:10.543Z,98308.60
2022-08-21T21:59:58.226Z,98313.96
2022-08-21T22:02:51.286Z,98317.25
2022-08-21T22:05:34.663Z,98320.42
2022-08-21T22:08:08.661Z,98321.43
2022-08-21T22:10:48.592Z,98320.71
2022-08-21T22:13:46.712Z,98318.10
2022-08-21T22:16:18.561Z,98321.88
2022-08-21T22:19:23.987Z,98326.70
2022-08-21T22:22:09.052Z,98334.70
2022-08-21T22:24:45.126Z,98332.67
2022-08-21T22:27:36.267Z,98333.06
2022-08-21T22:30:08.390Z,98333.13
2022-08-21T22:32:59.753Z,98337.65
2022-08-21T22:35:33.518Z,98339.71
2022-08-21T22:38:19.818Z,98340.81
2022-08-21T22:40:51.806Z,98344.80
2022-08-21T22:43:25.582Z,98344.33
2022-08-21T22:46:06.041Z,98343.98
2022-08-21T22:51:43.865Z,98347.50
2022-08-21T22:54:33.934Z,98346.15
2022-08-21T22:57:16.789Z,98344.91
2022-08-21T23:00:25.695Z,98346.61
2022-08-21T23:05:54.473Z,98350.38
2022-08-21T23:08:39.265Z,98345.28
2022-08-21T23:11:23.451Z,98343.23
2022-08-21T23:13:56.654Z,98343.23
2022-08-21T23:16:55.040Z,98344.16
2022-08-21T23:22:49.012Z,98349.36
2022-08-21T23:25:48.715Z,98346.96
2022-08-21T23:28:41.787Z,98351.95
2022-08-21T23:31:22.957Z,98355.93
2022-08-21T23:34:07.620Z,98355.66
2022-08-21T23:37:13.789Z,98347.40
2022-08-21T23:40:07.445Z,98354.23
2022-08-21T23:43:13.206Z,98356.85
2022-08-21T23:46:00.167Z,98354.10
2022-08-21T23:48:55.300Z,98349.73
2022-08-21T23:51:45.157Z,98351.46
2022-08-21T23:55:15.360Z,98350.88
2022-08-21T23:57:55.560Z,98355.20
